Time;durP1;ratioP1;P1;durP2;ratioP2;P2;SDS_P1;SDS_P2;PMS_P1;PMS_P2;Temp;Humidity;BMP_temperature;BMP_pressure;BME280_temperature;BME280_humidity;BME280_pressure;Samples;Min_cycle;Max_cycle;Signal;HPM_P1;HPM_P2
2022/03/05 00:02:25;;;;;;;39.10;21.42;;;10.20;52.30;;;;;;5070895;28;20379;-83
2022/03/05 00:04:51;;;;;;;39.55;20.90;;;10.10;52.30;;;;;;5097196;28;20378;-81
2022/03/05 00:07:19;;;;;;;38.10;20.63;;;10.20;52.20;;;;;;5096929;28;20107;-89
2022/03/05 00:09:45;;;;;;;38.72;21.30;;;10.30;52.20;;;;;;5096896;28;20103;-90
2022/03/05 00:12:11;;;;;;;36.38;20.45;;;10.40;51.80;;;;;;5068220;28;20036;-89
2022/03/05 00:14:37;;;;;;;33.72;19.15;;;10.10;52.30;;;;;;5091939;28;20031;-88
2022/03/05 00:17:03;;;;;;;35.28;19.60;;;10.20;52.30;;;;;;5078338;28;20024;-88
2022/03/05 00:19:29;;;;;;;36.97;20.33;;;10.40;52.00;;;;;;5078062;28;20121;-87
2022/03/05 00:21:57;;;;;;;33.67;18.42;;;10.50;51.70;;;;;;5096911;28;20107;-91
2022/03/05 00:24:23;;;;;;;34.92;20.05;;;10.50;51.10;;;;;;5065976;28;20047;-84
2022/03/05 00:26:48;;;;;;;33.45;18.83;;;10.40;51.10;;;;;;5076186;28;20491;-79
2022/03/05 00:29:14;;;;;;;35.40;18.73;;;10.40;51.50;;;;;;5058421;28;20016;-89
2022/03/05 00:31:40;;;;;;;33.92;18.35;;;10.40;51.70;;;;;;5074885;28;20086;-79
2022/03/05 00:34:07;;;;;;;32.72;17.77;;;10.50;51.40;;;;;;5058469;28;20025;-77
2022/03/05 00:36:33;;;;;;;31.75;17.02;;;10.40;51.20;;;;;;5057656;28;20495;-79
2022/03/05 00:38:58;;;;;;;29.40;16.42;;;10.50;51.10;;;;;;5075037;28;20036;-79
2022/03/05 00:41:24;;;;;;;32.72;17.08;;;10.50;50.70;;;;;;5073828;28;20364;-78
2022/03/05 00:43:50;;;;;;;32.10;16.90;;;10.40;51.10;;;;;;5077402;28;20035;-78
2022/03/05 00:46:15;;;;;;;30.20;16.90;;;10.40;51.30;;;;;;5077329;28;20078;-78
2022/03/05 00:48:41;;;;;;;28.58;15.57;;;10.50;51.60;;;;;;5077432;28;20495;-77
2022/03/05 00:51:07;;;;;;;28.13;15.48;;;10.50;50.70;;;;;;5082152;28;20045;-78
2022/03/05 00:53:32;;;;;;;28.67;16.02;;;10.40;50.90;;;;;;5057112;28;20041;-79
2022/03/05 00:55:58;;;;;;;28.48;14.98;;;10.40;51.20;;;;;;5074992;28;20051;-78
2022/03/05 00:58:24;;;;;;;30.50;16.58;;;10.50;51.20;;;;;;5056887;28;20119;-79
2022/03/05 01:00:52;;;;;;;30.73;16.92;;;10.50;51.20;;;;;;5067522;28;20112;-78
2022/03/05 01:03:18;;;;;;;32.53;16.77;;;10.50;51.40;;;;;;5095174;28;20520;-77
2022/03/05 01:05:44;;;;;;;30.75;16.45;;;10.10;52.10;;;;;;5076977;28;20020;-78
2022/03/05 01:08:10;;;;;;;29.10;16.02;;;10.20;51.70;;;;;;5095017;28;20022;-78
2022/03/05 01:10:36;;;;;;;33.78;16.75;;;10.30;51.40;;;;;;5076307;28;20059;-77
2022/03/05 01:13:03;;;;;;;32.35;15.45;;;10.40;51.40;;;;;;5076648;28;20403;-78
2022/03/05 01:15:28;;;;;;;29.30;15.90;;;10.50;51.30;;;;;;5094793;28;20547;-78
2022/03/05 01:17:54;;;;;;;27.77;14.13;;;10.40;51.30;;;;;;5094766;28;20028;-78
2022/03/05 01:20:20;;;;;;;28.42;15.20;;;10.00;52.20;;;;;;5093702;28;20024;-79
2022/03/05 01:22:45;;;;;;;30.70;15.35;;;10.00;52.30;;;;;;5076849;28;20735;-78
2022/03/05 01:25:11;;;;;;;28.67;15.70;;;10.10;51.50;;;;;;5092608;28;20028;-79
2022/03/05 01:27:37;;;;;;;27.15;15.32;;;10.20;51.50;;;;;;5076600;28;20360;-77
2022/03/05 01:30:03;;;;;;;27.98;15.38;;;10.30;51.70;;;;;;5072440;28;20020;-77
2022/03/05 01:32:29;;;;;;;27.92;15.15;;;10.40;51.30;;;;;;5074280;28;20056;-79
2022/03/05 01:34:55;;;;;;;27.33;14.38;;;10.30;51.10;;;;;;5056486;28;20410;-77
2022/03/05 01:37:20;;;;;;;30.00;14.60;;;10.30;51.10;;;;;;5055923;28;20391;-80
2022/03/05 01:39:46;;;;;;;28.30;14.27;;;10.50;50.70;;;;;;5075376;28;20024;-78
2022/03/05 01:42:12;;;;;;;24.27;12.98;;;10.50;50.20;;;;;;5074055;28;20039;-79
2022/03/05 01:44:38;;;;;;;22.45;12.93;;;10.50;50.30;;;;;;5056496;28;20016;-79
2022/03/05 01:47:05;;;;;;;24.90;13.13;;;10.60;50.10;;;;;;5074045;28;20114;-79
2022/03/05 01:49:30;;;;;;;22.77;13.23;;;10.60;49.80;;;;;;5056422;28;20032;-79
2022/03/05 01:51:57;;;;;;;24.13;13.32;;;10.60;49.60;;;;;;5093921;28;20052;-78
2022/03/05 01:54:24;;;;;;;22.77;12.80;;;10.30;50.20;;;;;;5093766;28;20395;-78
2022/03/05 01:56:50;;;;;;;27.85;14.68;;;10.00;50.80;;;;;;5075936;28;20498;-79
2022/03/05 01:59:16;;;;;;;27.02;14.63;;;9.90;51.20;;;;;;5093996;28;20032;-80
2022/03/05 02:01:42;;;;;;;30.90;16.33;;;9.90;51.50;;;;;;5057432;28;20039;-78
2022/03/05 02:04:08;;;;;;;32.55;15.25;;;10.10;51.60;;;;;;5055767;28;20062;-80
2022/03/05 02:06:34;;;;;;;27.63;15.50;;;10.20;51.10;;;;;;5073735;28;20029;-79
2022/03/05 02:09:00;;;;;;;32.55;16.25;;;10.00;51.50;;;;;;5055560;28;20046;-77
2022/03/05 02:11:26;;;;;;;27.65;14.63;;;10.10;51.40;;;;;;5088398;28;20059;-78
2022/03/05 02:13:53;;;;;;;28.33;15.35;;;10.10;51.20;;;;;;5075307;28;20024;-78
2022/03/05 02:16:20;;;;;;;32.35;16.67;;;9.80;51.90;;;;;;5075310;28;20024;-79
2022/03/05 02:18:48;;;;;;;31.65;17.13;;;9.60;52.70;;;;;;5075199;28;20027;-80
2022/03/05 02:21:14;;;;;;;28.55;15.38;;;9.80;52.20;;;;;;5074598;28;20464;-76
2022/03/05 02:23:40;;;;;;;29.52;17.08;;;9.80;51.80;;;;;;5093318;28;20023;-78
2022/03/05 02:26:06;;;;;;;31.27;16.20;;;9.80;51.10;;;;;;5075468;28;20028;-78
2022/03/05 02:28:34;;;;;;;29.80;16.13;;;9.90;50.70;;;;;;5073544;28;20038;-79
2022/03/05 02:31:00;;;;;;;30.38;16.08;;;9.90;50.90;;;;;;5074492;28;20031;-77
2022/03/05 02:33:26;;;;;;;28.65;16.27;;;9.60;50.80;;;;;;5075270;28;20036;-78
2022/03/05 02:35:52;;;;;;;29.15;15.32;;;9.50;51.20;;;;;;5073701;28;20020;-77
2022/03/05 02:38:20;;;;;;;27.13;14.75;;;9.40;51.60;;;;;;5075054;28;20085;-80
2022/03/05 02:40:47;;;;;;;25.02;14.93;;;9.60;51.30;;;;;;5074313;28;20032;-78
2022/03/05 02:43:14;;;;;;;26.83;13.90;;;9.80;50.70;;;;;;5055080;28;20123;-78
2022/03/05 02:45:40;;;;;;;24.23;13.63;;;9.90;49.90;;;;;;5059834;28;20050;-78
2022/03/05 02:48:09;;;;;;;28.15;14.15;;;10.00;49.00;;;;;;5091112;28;20055;-81
2022/03/05 02:50:35;;;;;;;23.20;13.05;;;10.10;49.60;;;;;;5093215;28;20044;-78
2022/03/05 02:53:01;;;;;;;24.80;13.98;;;10.10;48.90;;;;;;5074596;28;20028;-78
2022/03/05 02:55:27;;;;;;;23.13;12.93;;;10.10;49.20;;;;;;5090317;28;20038;-79
2022/03/05 02:57:52;;;;;;;23.10;12.63;;;10.20;48.40;;;;;;5075078;28;20031;-80
2022/03/05 03:00:18;;;;;;;23.65;13.27;;;9.90;49.10;;;;;;5093098;28;20027;-78
2022/03/05 03:02:45;;;;;;;22.50;13.15;;;9.70;49.40;;;;;;5074929;28;20070;-78
2022/03/05 03:05:12;;;;;;;22.50;12.90;;;9.80;49.00;;;;;;5073324;28;20025;-79
2022/03/05 03:07:38;;;;;;;23.58;12.93;;;9.90;49.80;;;;;;5093017;28;20078;-79
2022/03/05 03:10:08;;;;;;;22.83;12.25;;;10.00;48.20;;;;;;5092753;28;20020;-79
2022/03/05 03:12:34;;;;;;;25.35;12.85;;;10.10;48.50;;;;;;5075026;28;20036;-78
2022/03/05 03:15:00;;;;;;;25.30;12.65;;;10.10;48.40;;;;;;5074472;28;20371;-79
2022/03/05 03:17:26;;;;;;;23.05;12.38;;;10.10;48.60;;;;;;5075129;28;20028;-77
2022/03/05 03:19:52;;;;;;;23.58;12.88;;;10.00;49.50;;;;;;5054717;28;20387;-80
2022/03/05 03:22:19;;;;;;;23.48;12.77;;;10.00;49.00;;;;;;5072714;28;20113;-78
2022/03/05 03:24:44;;;;;;;21.58;13.05;;;10.00;48.70;;;;;;5054596;28;20472;-79
2022/03/05 03:27:10;;;;;;;22.42;12.43;;;10.00;48.60;;;;;;5087282;28;20107;-78
2022/03/05 03:29:36;;;;;;;25.45;12.38;;;10.00;48.50;;;;;;5074646;28;20028;-78
2022/03/05 03:32:03;;;;;;;27.30;13.00;;;10.00;49.00;;;;;;5074454;28;20117;-80
2022/03/05 03:34:28;;;;;;;21.23;11.98;;;9.80;49.10;;;;;;5074398;28;20040;-77
2022/03/05 03:36:54;;;;;;;21.40;11.90;;;10.00;48.70;;;;;;5059357;28;20111;-78
2022/03/05 03:39:20;;;;;;;20.90;11.68;;;9.80;48.20;;;;;;5054446;28;20087;-78
2022/03/05 03:41:46;;;;;;;20.90;11.13;;;9.60;48.80;;;;;;5054231;28;20460;-79
2022/03/05 03:44:11;;;;;;;21.23;11.90;;;9.50;49.10;;;;;;5072541;28;20032;-78
2022/03/05 03:46:38;;;;;;;23.05;12.25;;;9.40;49.00;;;;;;5081902;28;20024;-77
2022/03/05 03:49:04;;;;;;;24.60;12.00;;;9.10;50.30;;;;;;5074558;28;20025;-82
2022/03/05 03:51:29;;;;;;;23.38;12.70;;;8.90;51.60;;;;;;5074270;28;20048;-78
2022/03/05 03:53:55;;;;;;;22.88;12.98;;;8.40;52.30;;;;;;5074208;28;20055;-77
2022/03/05 03:56:21;;;;;;;22.08;11.75;;;8.20;52.90;;;;;;5072538;28;20032;-78
2022/03/05 03:58:46;;;;;;;23.73;12.75;;;7.90;53.30;;;;;;5073795;28;20032;-79
2022/03/05 04:01:12;;;;;;;22.52;11.80;;;8.00;53.30;;;;;;5092487;28;20025;-79
2022/03/05 04:03:38;;;;;;;23.05;12.07;;;8.00;53.00;;;;;;5092252;28;20478;-78
2022/03/05 04:06:03;;;;;;;24.85;12.15;;;8.00;53.10;;;;;;5083914;28;20028;-78
2022/03/05 04:08:47;;;;;;;24.60;13.23;;;8.20;52.90;;;;;;5058048;28;20025;-79
2022/03/05 04:11:19;;;;;;;21.45;12.48;;;8.40;52.60;;;;;;5058032;28;20028;-79
2022/03/05 04:13:48;;;;;;;22.65;12.57;;;8.60;52.90;;;;;;5058018;28;20033;-80
2022/03/05 04:16:14;;;;;;;26.75;12.52;;;8.80;52.10;;;;;;5068351;28;20111;-84
2022/03/05 04:18:40;;;;;;;25.33;13.23;;;9.00;51.60;;;;;;5077614;28;20020;-79
2022/03/05 04:21:08;;;;;;;26.30;13.10;;;8.90;51.50;;;;;;5095921;28;20028;-78
2022/03/05 04:23:34;;;;;;;24.15;12.55;;;8.80;52.10;;;;;;5077681;28;20020;-79
2022/03/05 04:26:00;;;;;;;26.25;13.98;;;8.60;52.80;;;;;;5065802;28;20021;-77
2022/03/05 04:28:26;;;;;;;24.85;13.63;;;8.30;53.30;;;;;;5057590;28;20032;-77
2022/03/05 04:30:52;;;;;;;22.52;13.05;;;8.00;53.80;;;;;;5075279;28;20085;-82
2022/03/05 04:33:18;;;;;;;26.23;13.00;;;7.70;54.10;;;;;;5087193;28;20043;-83
2022/03/05 04:35:43;;;;;;;24.70;12.73;;;7.50;54.80;;;;;;5077121;28;20066;-79
2022/03/05 04:38:09;;;;;;;25.95;12.65;;;7.60;55.10;;;;;;5095490;28;20024;-82
2022/03/05 04:40:35;;;;;;;24.45;13.48;;;8.10;54.00;;;;;;5077423;28;20034;-78
2022/03/05 04:43:01;;;;;;;22.58;12.23;;;8.50;52.50;;;;;;5085754;28;20031;-78
2022/03/05 04:45:27;;;;;;;25.35;12.38;;;8.70;52.20;;;;;;5057135;28;20024;-78
2022/03/05 04:47:53;;;;;;;26.48;13.45;;;8.60;52.70;;;;;;5056987;28;20051;-79
2022/03/05 04:50:18;;;;;;;24.30;12.38;;;8.50;52.70;;;;;;5056920;28;20028;-80
2022/03/05 04:52:44;;;;;;;26.05;13.30;;;8.40;52.80;;;;;;5075779;28;20075;-77
2022/03/05 04:55:10;;;;;;;24.98;13.68;;;8.50;53.00;;;;;;5074603;28;20025;-77
2022/03/05 04:57:36;;;;;;;25.35;13.02;;;8.50;53.10;;;;;;5057179;28;20028;-78
2022/03/05 05:00:07;;;;;;;22.85;12.65;;;8.50;52.90;;;;;;5074893;28;20376;-78
2022/03/05 05:02:50;;;;;;;24.90;13.35;;;8.40;53.20;;;;;;5079437;28;20062;-78
2022/03/05 05:05:16;;;;;;;23.08;12.30;;;8.50;52.60;;;;;;5077115;28;20024;-79
2022/03/05 05:07:41;;;;;;;25.95;13.43;;;8.80;52.30;;;;;;5094921;28;20035;-83
2022/03/05 05:10:07;;;;;;;25.10;13.10;;;9.00;51.50;;;;;;5095050;28;20689;-78
2022/03/05 05:12:33;;;;;;;20.60;11.98;;;8.90;51.40;;;;;;5068953;28;20059;-78
2022/03/05 05:14:59;;;;;;;24.45;12.52;;;8.80;52.10;;;;;;5056756;28;20036;-77
2022/03/05 05:17:24;;;;;;;21.95;11.75;;;8.80;51.70;;;;;;5056040;28;20105;-78
2022/03/05 05:19:50;;;;;;;22.90;12.57;;;8.50;52.40;;;;;;5074617;28;20020;-77
2022/03/05 05:22:16;;;;;;;24.65;13.40;;;8.20;53.00;;;;;;5060401;28;20039;-78
2022/03/05 05:24:41;;;;;;;22.35;12.27;;;8.10;53.20;;;;;;5076456;28;20028;-78
2022/03/05 05:27:07;;;;;;;24.67;12.77;;;8.00;53.60;;;;;;5094846;28;20490;-78
2022/03/05 05:29:33;;;;;;;24.45;12.80;;;8.00;53.50;;;;;;5076682;28;20053;-78
2022/03/05 05:31:59;;;;;;;22.42;12.75;;;8.20;52.80;;;;;;5074434;28;20036;-78
2022/03/05 05:34:25;;;;;;;27.00;12.95;;;8.40;52.60;;;;;;5056273;28;20384;-78
2022/03/05 05:36:50;;;;;;;24.15;12.30;;;8.50;52.40;;;;;;5056324;28;20051;-78
2022/03/05 05:39:16;;;;;;;24.10;12.93;;;8.50;52.50;;;;;;5056172;28;20059;-78
2022/03/05 05:41:42;;;;;;;24.42;13.00;;;8.60;52.60;;;;;;5056219;28;20035;-77
2022/03/05 05:44:10;;;;;;;24.70;12.73;;;8.60;52.30;;;;;;5075150;28;20032;-83
2022/03/05 05:46:36;;;;;;;25.35;12.85;;;8.70;51.80;;;;;;5076114;28;20484;-78
2022/03/05 05:49:02;;;;;;;22.58;12.23;;;8.90;51.10;;;;;;5094308;28;20418;-78
2022/03/05 05:51:29;;;;;;;25.63;13.55;;;9.00;51.00;;;;;;5094186;28;20459;-78
2022/03/05 05:53:56;;;;;;;24.13;12.68;;;8.80;51.00;;;;;;5059858;28;20453;-78
2022/03/05 05:56:23;;;;;;;26.58;13.75;;;8.90;51.50;;;;;;5056016;28;20059;-78
2022/03/05 05:58:49;;;;;;;25.15;13.18;;;9.10;51.50;;;;;;5056007;28;20070;-77
2022/03/05 06:01:17;;;;;;;22.85;12.02;;;9.40;50.40;;;;;;5073676;28;20436;-77
2022/03/05 06:03:45;;;;;;;24.85;13.57;;;9.50;50.30;;;;;;5055483;28;20024;-77
2022/03/05 06:06:13;;;;;;;42.05;16.92;;;9.60;50.50;;;;;;5056040;28;20056;-78
2022/03/05 06:08:40;;;;;;;42.25;20.58;;;9.40;50.50;;;;;;5078286;28;20016;-78
2022/03/05 06:11:06;;;;;;;41.72;20.83;;;9.30;50.80;;;;;;5093685;28;20055;-77
2022/03/05 06:13:31;;;;;;;63.10;24.30;;;9.50;50.70;;;;;;5093757;28;20024;-78
2022/03/05 06:15:57;;;;;;;32.83;16.80;;;9.80;50.30;;;;;;5093791;28;20028;-77
2022/03/05 06:18:23;;;;;;;29.58;15.85;;;9.80;50.70;;;;;;5057908;28;20028;-79
2022/03/05 06:20:49;;;;;;;26.17;14.60;;;9.80;50.60;;;;;;5073334;28;20035;-77
2022/03/05 06:23:17;;;;;;;27.52;14.90;;;10.00;50.20;;;;;;5055441;28;20032;-78
2022/03/05 06:25:43;;;;;;;27.23;15.02;;;10.00;49.80;;;;;;5073386;28;20017;-79
2022/03/05 06:28:09;;;;;;;26.45;13.65;;;10.10;49.90;;;;;;4715864;28;9999655;-77
2022/03/05 06:30:35;;;;;;;26.55;14.52;;;10.30;49.70;;;;;;5071854;28;20035;-79
2022/03/05 06:33:00;;;;;;;27.83;14.38;;;10.50;49.50;;;;;;5090085;28;20043;-78
2022/03/05 06:35:26;;;;;;;29.20;14.68;;;10.60;48.70;;;;;;5072662;28;20107;-79
2022/03/05 06:37:52;;;;;;;24.27;13.02;;;10.60;48.50;;;;;;5059917;28;20031;-79
2022/03/05 06:40:18;;;;;;;23.83;13.38;;;10.40;48.70;;;;;;5058701;28;20030;-79
2022/03/05 06:42:45;;;;;;;25.98;13.90;;;10.40;48.70;;;;;;5068688;28;20486;-77
2022/03/05 06:45:11;;;;;;;26.83;14.20;;;10.20;49.40;;;;;;5072339;28;20036;-78
2022/03/05 06:47:38;;;;;;;26.17;13.38;;;10.30;49.40;;;;;;5069840;28;20027;-77
2022/03/05 06:50:05;;;;;;;25.80;13.55;;;10.40;48.90;;;;;;5059667;28;20021;-76
2022/03/05 06:52:31;;;;;;;24.10;12.93;;;10.60;48.70;;;;;;5051214;28;20059;-77
2022/03/05 06:54:57;;;;;;;36.67;21.67;;;10.60;48.40;;;;;;5051263;28;20028;-76
2022/03/05 06:57:24;;;;;;;27.77;14.80;;;10.50;48.40;;;;;;5050896;28;20036;-76
2022/03/05 06:59:49;;;;;;;25.77;13.90;;;10.60;48.60;;;;;;5069456;28;20096;-77
2022/03/05 07:02:15;;;;;;;50.30;26.88;;;10.90;48.50;;;;;;5059146;28;20119;-81
2022/03/05 07:04:41;;;;;;;34.35;18.38;;;11.10;48.30;;;;;;5072361;28;20027;-79
2022/03/05 07:07:07;;;;;;;31.65;17.75;;;11.30;48.10;;;;;;5052254;28;20039;-78
2022/03/05 07:09:33;;;;;;;32.40;18.67;;;11.20;47.70;;;;;;5052068;28;20028;-78
2022/03/05 07:11:59;;;;;;;30.75;16.40;;;11.00;47.90;;;;;;5051988;28;20035;-76
2022/03/05 07:14:25;;;;;;;26.80;14.60;;;11.20;48.00;;;;;;5069721;28;20021;-78
2022/03/05 07:16:54;;;;;;;27.20;14.25;;;11.20;47.80;;;;;;5051822;28;20612;-77
2022/03/05 07:19:20;;;;;;;26.50;14.52;;;11.10;47.70;;;;;;5069244;28;20017;-81
2022/03/05 07:21:47;;;;;;;25.75;14.25;;;11.50;47.20;;;;;;5067776;28;20031;-79
2022/03/05 07:24:13;;;;;;;28.73;15.00;;;11.70;47.40;;;;;;5088931;28;20024;-77
2022/03/05 07:26:39;;;;;;;25.63;14.45;;;11.70;47.00;;;;;;5089187;28;20395;-77
2022/03/05 07:29:06;;;;;;;25.88;13.73;;;11.60;47.20;;;;;;5079881;28;20040;-77
2022/03/05 07:31:31;;;;;;;28.27;13.77;;;11.70;47.40;;;;;;5071707;28;20147;-78
2022/03/05 07:33:57;;;;;;;25.25;14.98;;;11.70;46.60;;;;;;5066138;28;20040;-79
2022/03/05 07:36:23;;;;;;;30.17;15.70;;;11.40;47.10;;;;;;5087991;28;20490;-78
2022/03/05 07:38:48;;;;;;;24.80;14.38;;;11.70;47.20;;;;;;5089744;28;20067;-79
2022/03/05 07:41:14;;;;;;;29.75;16.00;;;11.90;46.50;;;;;;5068658;28;20028;-79
2022/03/05 07:43:40;;;;;;;27.52;15.85;;;11.40;47.50;;;;;;5074879;28;20028;-84
2022/03/05 07:46:06;;;;;;;31.13;17.30;;;11.40;47.80;;;;;;5069863;28;20028;-80
2022/03/05 07:48:32;;;;;;;31.13;17.10;;;11.30;48.30;;;;;;5073885;28;20028;-79
2022/03/05 07:51:00;;;;;;;32.53;17.60;;;11.40;48.30;;;;;;5086691;28;20130;-78
2022/03/05 07:53:27;;;;;;;29.38;17.17;;;11.70;47.70;;;;;;5075241;28;20036;-78
2022/03/05 07:55:53;;;;;;;27.13;16.08;;;11.80;46.80;;;;;;5094017;28;20032;-80
2022/03/05 07:58:19;;;;;;;27.50;15.32;;;11.50;46.50;;;;;;5069452;28;20028;-78
2022/03/05 08:00:45;;;;;;;29.20;16.63;;;11.30;47.40;;;;;;4712720;28;9999933;-80
2022/03/05 08:03:11;;;;;;;29.23;16.88;;;11.30;46.60;;;;;;5086609;28;20040;-78
2022/03/05 08:05:36;;;;;;;25.50;15.63;;;11.60;46.90;;;;;;5075139;28;20045;-79
2022/03/05 08:08:03;;;;;;;29.73;15.52;;;11.90;46.80;;;;;;5068422;28;20017;-81
2022/03/05 08:10:28;;;;;;;33.15;17.98;;;12.30;46.50;;;;;;5075906;28;20021;-77
2022/03/05 08:12:54;;;;;;;27.20;15.95;;;12.30;45.30;;;;;;5075739;28;20037;-77
2022/03/05 08:15:20;;;;;;;24.58;13.43;;;11.20;46.40;;;;;;5058000;28;20027;-82
2022/03/05 08:17:55;;;;;;;24.58;14.10;;;10.40;48.50;;;;;;5075888;28;20107;-81
2022/03/05 08:20:22;;;;;;;26.27;15.80;;;10.50;48.70;;;;;;5085866;28;20016;-79
2022/03/05 08:22:48;;;;;;;25.85;15.40;;;11.00;48.10;;;;;;5096091;28;20032;-81
2022/03/05 08:25:14;;;;;;;24.15;14.63;;;11.60;47.00;;;;;;5077948;28;20119;-79
2022/03/05 08:27:40;;;;;;;25.10;14.07;;;12.00;45.80;;;;;;5095833;28;20016;-79
2022/03/05 08:30:07;;;;;;;23.75;13.80;;;12.00;45.30;;;;;;5077783;28;20039;-78
2022/03/05 08:32:34;;;;;;;28.10;15.63;;;11.70;46.00;;;;;;5095740;28;20113;-78
2022/03/05 08:34:59;;;;;;;24.35;13.95;;;11.80;46.60;;;;;;5096125;28;20054;-80
2022/03/05 08:37:27;;;;;;;27.85;14.68;;;12.10;46.00;;;;;;5077606;28;20024;-79
2022/03/05 08:39:53;;;;;;;27.48;15.85;;;12.10;46.10;;;;;;5077713;28;20020;-79
2022/03/05 08:42:19;;;;;;;25.90;15.68;;;12.20;45.80;;;;;;5077514;28;20455;-77
2022/03/05 08:44:45;;;;;;;28.45;15.10;;;12.20;46.20;;;;;;5095414;28;20020;-79
2022/03/05 08:47:11;;;;;;;25.15;13.90;;;12.10;45.30;;;;;;5064736;28;20063;-78
2022/03/05 08:49:37;;;;;;;23.00;12.60;;;12.40;44.90;;;;;;5092577;28;20079;-79
2022/03/05 08:52:03;;;;;;;25.38;13.60;;;12.30;44.70;;;;;;5070177;28;20410;-80
2022/03/05 08:54:29;;;;;;;21.58;13.32;;;11.80;45.50;;;;;;5077327;28;20024;-79
2022/03/05 08:56:54;;;;;;;26.83;14.25;;;11.80;45.60;;;;;;5089391;28;20020;-79
2022/03/05 08:59:20;;;;;;;23.33;13.40;;;12.30;45.50;;;;;;5074947;28;20061;-80
2022/03/05 09:01:46;;;;;;;24.42;13.52;;;12.70;45.30;;;;;;5057257;28;20483;-81
2022/03/05 09:04:12;;;;;;;23.30;13.10;;;12.80;44.60;;;;;;5058138;28;20531;-79
2022/03/05 09:06:38;;;;;;;24.23;13.20;;;12.30;44.60;;;;;;4711940;28;9999616;-79
2022/03/05 09:09:08;;;;;;;25.42;14.68;;;12.30;45.20;;;;;;5073778;28;20395;-77
2022/03/05 09:11:37;;;;;;;22.03;13.30;;;12.70;45.20;;;;;;5062076;28;20058;-78
2022/03/05 09:14:06;;;;;;;21.02;11.13;;;13.00;44.70;;;;;;5079463;28;20024;-78
2022/03/05 09:16:35;;;;;;;18.38;10.10;;;13.40;42.20;;;;;;5086902;28;20031;-77
2022/03/05 09:19:00;;;;;;;18.25;10.57;;;13.20;42.30;;;;;;5060629;28;20390;-77
2022/03/05 09:21:26;;;;;;;18.20;10.70;;;13.50;41.90;;;;;;5069023;28;20040;-77
2022/03/05 09:23:52;;;;;;;20.80;11.73;;;13.80;41.20;;;;;;5069385;28;20071;-82
2022/03/05 09:26:18;;;;;;;16.73;10.18;;;14.10;41.90;;;;;;5086720;28;20069;-85
2022/03/05 09:28:44;;;;;;;18.70;11.38;;;14.30;40.70;;;;;;5060807;28;20043;-77
2022/03/05 09:31:13;;;;;;;17.60;10.48;;;14.70;41.00;;;;;;5057140;28;20052;-76
2022/03/05 09:33:38;;;;;;;16.85;10.27;;;15.10;40.10;;;;;;5079587;28;20036;-78
2022/03/05 09:36:04;;;;;;;16.58;10.20;;;15.60;38.90;;;;;;5060923;28;20376;-77
2022/03/05 09:38:30;;;;;;;16.63;10.00;;;15.30;38.60;;;;;;5060397;28;20395;-76
2022/03/05 09:40:56;;;;;;;15.77;10.10;;;15.00;39.40;;;;;;5087264;28;20032;-77
2022/03/05 09:43:23;;;;;;;18.52;11.07;;;15.40;39.90;;;;;;5060576;28;20130;-77
2022/03/05 09:45:49;;;;;;;17.10;10.23;;;15.60;39.10;;;;;;5054011;28;20036;-77
2022/03/05 09:48:16;;;;;;;17.00;10.43;;;16.20;39.10;;;;;;5071191;28;20086;-80
2022/03/05 09:50:42;;;;;;;17.65;9.77;;;17.10;38.40;;;;;;5053594;28;20115;-77
2022/03/05 09:53:08;;;;;;;28.08;13.75;;;17.80;37.80;;;;;;5070655;28;20032;-77
2022/03/05 09:55:34;;;;;;;19.08;11.55;;;18.20;36.20;;;;;;5066263;28;20081;-77
2022/03/05 09:58:00;;;;;;;17.25;9.63;;;18.60;36.30;;;;;;5091361;28;20171;-77
2022/03/05 10:00:26;;;;;;;17.85;11.30;;;19.10;36.10;;;;;;5073004;28;20024;-77
2022/03/05 10:02:52;;;;;;;23.48;14.55;;;19.80;35.50;;;;;;5072969;28;20020;-78
2022/03/05 10:05:20;;;;;;;17.90;11.27;;;20.70;35.30;;;;;;5061342;28;20021;-77
2022/03/05 10:07:59;;;;;;;19.77;13.10;;;20.70;35.30;;;;;;5068629;28;20489;-75
2022/03/05 10:10:25;;;;;;;15.07;8.95;;;21.00;35.30;;;;;;5070203;28;20486;-79
2022/03/05 10:12:51;;;;;;;14.27;9.55;;;22.30;34.00;;;;;;5056693;28;20046;-79
2022/03/05 10:15:17;;;;;;;15.63;9.38;;;21.80;33.10;;;;;;5054393;28;20123;-79
2022/03/05 10:17:48;;;;;;;13.75;9.00;;;20.50;34.40;;;;;;5061176;28;20024;-78
2022/03/05 10:20:14;;;;;;;13.85;9.50;;;21.60;33.80;;;;;;5072817;28;20097;-78
2022/03/05 10:22:57;;;;;;;14.75;9.20;;;22.80;33.90;;;;;;5060756;28;20062;-78
2022/03/05 10:25:43;;;;;;;15.43;9.32;;;23.30;33.40;;;;;;5053077;28;20033;-85
2022/03/05 10:28:10;;;;;;;14.23;9.18;;;24.20;32.00;;;;;;5074756;28;20534;-82
2022/03/05 10:30:40;;;;;;;14.85;8.90;;;25.40;31.50;;;;;;5058128;28;20114;-80
2022/03/05 10:33:06;;;;;;;13.35;8.52;;;26.00;31.60;;;;;;5053563;28;20033;-79
2022/03/05 10:35:32;;;;;;;12.70;9.00;;;24.40;31.40;;;;;;5086242;28;20170;-80
2022/03/05 10:37:58;;;;;;;13.07;9.02;;;24.30;31.80;;;;;;5072700;28;20028;-80
2022/03/05 10:40:29;;;;;;;13.48;9.38;;;23.90;31.00;;;;;;5060923;28;20028;-78
2022/03/05 10:43:02;;;;;;;13.73;8.95;;;23.30;30.80;;;;;;5052495;28;20043;-78
2022/03/05 10:45:29;;;;;;;13.05;8.07;;;21.70;31.70;;;;;;5053301;28;20054;-81
2022/03/05 10:47:57;;;;;;;12.15;8.40;;;20.50;33.90;;;;;;5072765;28;20028;-79
2022/03/05 10:50:31;;;;;;;12.95;8.60;;;21.00;33.70;;;;;;5073561;28;20031;-80
2022/03/05 10:53:02;;;;;;;14.05;8.40;;;21.00;34.00;;;;;;5090791;28;20059;-80
2022/03/05 10:55:36;;;;;;;12.00;8.18;;;21.50;33.20;;;;;;5072728;28;20032;-83
2022/03/05 10:58:04;;;;;;;12.77;8.50;;;21.00;33.10;;;;;;5070854;28;20032;-81
2022/03/05 11:00:31;;;;;;;11.98;7.82;;;21.80;34.10;;;;;;5070329;28;20055;-82
2022/03/05 11:03:00;;;;;;;13.02;7.55;;;22.50;32.70;;;;;;5052932;28;20051;-80
2022/03/05 11:05:27;;;;;;;12.52;7.88;;;22.90;31.90;;;;;;5056785;28;20106;-79
2022/03/05 11:07:56;;;;;;;12.00;7.57;;;21.50;32.80;;;;;;5085107;28;20042;-81
2022/03/05 11:10:27;;;;;;;11.15;7.93;;;20.90;32.50;;;;;;5053151;28;20021;-79
2022/03/05 11:12:56;;;;;;;12.65;7.93;;;19.90;33.40;;;;;;5053836;28;20751;-81
2022/03/05 11:15:24;;;;;;;11.57;7.57;;;19.10;33.60;;;;;;5052593;28;20025;-80
2022/03/05 11:17:50;;;;;;;11.57;7.25;;;18.80;33.50;;;;;;5052701;28;20119;-79
2022/03/05 11:20:17;;;;;;;12.00;8.00;;;18.40;34.60;;;;;;5077888;28;20036;-82
2022/03/05 11:22:46;;;;;;;12.13;8.00;;;17.40;34.60;;;;;;5089066;28;20036;-82
2022/03/05 11:25:15;;;;;;;12.02;7.60;;;16.20;34.90;;;;;;5054424;28;20463;-81
2022/03/05 11:27:54;;;;;;;13.32;7.70;;;15.90;36.60;;;;;;5052372;28;20036;-79
2022/03/05 11:30:20;;;;;;;11.93;7.40;;;15.50;36.10;;;;;;5070112;28;20032;-80
2022/03/05 11:32:45;;;;;;;16.08;8.90;;;15.40;36.10;;;;;;5065870;28;20044;-84
2022/03/05 11:35:19;;;;;;;13.10;7.78;;;15.20;37.20;;;;;;5063445;28;20056;-79
2022/03/05 11:37:47;;;;;;;12.98;8.52;;;15.30;36.30;;;;;;5071363;28;20111;-81
2022/03/05 11:40:37;;;;;;;13.32;7.90;;;15.70;37.90;;;;;;5062116;28;20057;-80
2022/03/05 11:43:24;;;;;;;13.73;7.80;;;15.80;36.70;;;;;;5059797;28;20472;-80
2022/03/05 11:46:04;;;;;;;11.75;7.47;;;15.50;36.00;;;;;;5053701;28;20501;-80
2022/03/05 11:48:32;;;;;;;12.98;7.65;;;14.70;36.20;;;;;;5068390;28;20114;-79
2022/03/05 11:51:01;;;;;;;12.70;7.72;;;14.20;37.30;;;;;;5091085;28;20511;-78
2022/03/05 11:53:27;;;;;;;12.10;7.80;;;13.60;37.10;;;;;;5090871;28;20048;-79
2022/03/05 11:55:54;;;;;;;13.43;7.85;;;13.60;39.30;;;;;;5072069;28;20028;-79
2022/03/05 11:58:26;;;;;;;15.57;8.63;;;14.30;38.00;;;;;;5072945;28;20431;-78
2022/03/05 12:00:54;;;;;;;12.25;7.95;;;15.00;38.30;;;;;;5071908;28;20024;-78
2022/03/05 12:03:42;;;;;;;13.68;7.22;;;15.50;37.20;;;;;;5065227;28;20024;-81
2022/03/05 12:06:10;;;;;;;11.40;6.80;;;15.00;36.20;;;;;;5069022;28;20118;-82
2022/03/05 12:08:35;;;;;;;10.60;6.53;;;14.60;36.50;;;;;;5070155;28;20074;-80
2022/03/05 12:11:07;;;;;;;11.55;7.10;;;14.90;36.20;;;;;;5052578;28;20021;-78
2022/03/05 12:13:32;;;;;;;11.00;6.80;;;14.90;35.30;;;;;;5052360;28;20040;-80
2022/03/05 12:15:58;;;;;;;12.13;6.65;;;15.00;36.70;;;;;;5052342;28;20107;-78
2022/03/05 12:18:24;;;;;;;12.73;7.38;;;15.10;36.10;;;;;;5063205;28;20575;-79
2022/03/05 12:20:50;;;;;;;12.13;7.35;;;15.00;36.50;;;;;;5066488;28;20028;-78
2022/03/05 12:23:18;;;;;;;12.48;7.35;;;14.90;36.40;;;;;;5060019;28;20098;-78
2022/03/05 12:25:47;;;;;;;12.38;7.45;;;14.40;36.70;;;;;;5089740;28;20375;-79
2022/03/05 12:28:18;;;;;;;13.73;7.95;;;13.70;37.60;;;;;;5066554;28;20024;-78
2022/03/05 12:30:45;;;;;;;11.88;7.25;;;13.30;38.30;;;;;;5075324;28;20032;-78